sensor_id;sensor_type;location;lat;lon;timestamp;P1;durP1;ratioP1;P2;durP2;ratioP2
1591;SDS011;789;51.612;7.510;2022-08-19T00:01:48;10.40;;;9.50;;
1591;SDS011;789;51.612;7.510;2022-08-19T00:04:17;11.57;;;10.57;;
1591;SDS011;789;51.612;7.510;2022-08-19T00:06:46;11.13;;;10.03;;
1591;SDS011;789;51.612;7.510;2022-08-19T00:09:16;11.53;;;10.43;;
1591;SDS011;789;51.612;7.510;2022-08-19T00:11:44;11.47;;;10.47;;
1591;SDS011;789;51.612;7.510;2022-08-19T00:14:12;11.60;;;10.70;;
1591;SDS011;789;51.612;7.510;2022-08-19T00:16:41;12.63;;;11.30;;
1591;SDS011;789;51.612;7.510;2022-08-19T00:19:09;12.57;;;11.27;;
1591;SDS011;789;51.612;7.510;2022-08-19T00:21:36;11.57;;;10.67;;
1591;SDS011;789;51.612;7.510;2022-08-19T00:24:04;12.33;;;11.13;;
1591;SDS011;789;51.612;7.510;2022-08-19T00:26:34;13.03;;;11.93;;
1591;SDS011;789;51.612;7.510;2022-08-19T00:29:02;11.47;;;10.57;;
1591;SDS011;789;51.612;7.510;2022-08-19T00:31:30;12.20;;;11.00;;
1591;SDS011;789;51.612;7.510;2022-08-19T00:33:57;11.97;;;11.03;;
1591;SDS011;789;51.612;7.510;2022-08-19T00:36:24;12.50;;;11.40;;
1591;SDS011;789;51.612;7.510;2022-08-19T00:38:51;17.80;;;13.00;;
1591;SDS011;789;51.612;7.510;2022-08-19T00:41:19;13.57;;;12.27;;
1591;SDS011;789;51.612;7.510;2022-08-19T00:44:01;13.30;;;12.10;;
1591;SDS011;789;51.612;7.510;2022-08-19T00:46:30;14.40;;;13.30;;
1591;SDS011;789;51.612;7.510;2022-08-19T00:48:58;12.87;;;11.43;;
1591;SDS011;789;51.612;7.510;2022-08-19T00:51:27;13.43;;;12.40;;
1591;SDS011;789;51.612;7.510;2022-08-19T00:53:57;12.97;;;11.87;;
1591;SDS011;789;51.612;7.510;2022-08-19T00:56:26;13.90;;;12.80;;
1591;SDS011;789;51.612;7.510;2022-08-19T00:58:53;14.10;;;11.00;;
1591;SDS011;789;51.612;7.510;2022-08-19T01:01:23;12.73;;;11.63;;
1591;SDS011;789;51.612;7.510;2022-08-19T01:03:50;12.70;;;11.60;;
1591;SDS011;789;51.612;7.510;2022-08-19T01:06:17;11.60;;;10.70;;
1591;SDS011;789;51.612;7.510;2022-08-19T01:08:44;11.67;;;10.47;;
1591;SDS011;789;51.612;7.510;2022-08-19T01:11:11;11.60;;;10.60;;
1591;SDS011;789;51.612;7.510;2022-08-19T01:13:38;11.07;;;10.17;;
1591;SDS011;789;51.612;7.510;2022-08-19T01:16:07;11.23;;;10.33;;
1591;SDS011;789;51.612;7.510;2022-08-19T01:18:41;10.63;;;9.83;;
1591;SDS011;789;51.612;7.510;2022-08-19T01:21:09;12.00;;;10.93;;
1591;SDS011;789;51.612;7.510;2022-08-19T01:23:42;11.93;;;10.93;;
1591;SDS011;789;51.612;7.510;2022-08-19T01:26:11;12.17;;;11.13;;
1591;SDS011;789;51.612;7.510;2022-08-19T01:28:40;12.50;;;11.30;;
1591;SDS011;789;51.612;7.510;2022-08-19T01:31:08;11.43;;;10.50;;
1591;SDS011;789;51.612;7.510;2022-08-19T01:33:38;11.77;;;10.67;;
1591;SDS011;789;51.612;7.510;2022-08-19T01:36:06;11.80;;;10.90;;
1591;SDS011;789;51.612;7.510;2022-08-19T01:38:36;13.10;;;12.00;;
1591;SDS011;789;51.612;7.510;2022-08-19T01:41:05;12.27;;;11.17;;
1591;SDS011;789;51.612;7.510;2022-08-19T01:43:33;12.63;;;11.53;;
1591;SDS011;789;51.612;7.510;2022-08-19T01:46:00;12.57;;;11.57;;
1591;SDS011;789;51.612;7.510;2022-08-19T01:48:32;12.60;;;11.40;;
1591;SDS011;789;51.612;7.510;2022-08-19T01:50:59;12.80;;;11.80;;
1591;SDS011;789;51.612;7.510;2022-08-19T01:53:26;11.90;;;11.00;;
1591;SDS011;789;51.612;7.510;2022-08-19T01:55:53;12.40;;;11.20;;
1591;SDS011;789;51.612;7.510;2022-08-19T01:58:24;13.00;;;12.00;;
1591;SDS011;789;51.612;7.510;2022-08-19T02:00:55;13.63;;;12.53;;
1591;SDS011;789;51.612;7.510;2022-08-19T02:03:23;14.13;;;12.93;;
1591;SDS011;789;51.612;7.510;2022-08-19T02:05:53;15.13;;;13.67;;
1591;SDS011;789;51.612;7.510;2022-08-19T02:08:21;13.73;;;12.63;;
1591;SDS011;789;51.612;7.510;2022-08-19T02:10:48;14.30;;;12.83;;
1591;SDS011;789;51.612;7.510;2022-08-19T02:13:15;15.27;;;13.87;;
1591;SDS011;789;51.612;7.510;2022-08-19T02:15:43;15.50;;;13.90;;
1591;SDS011;789;51.612;7.510;2022-08-19T02:18:10;13.37;;;12.10;;
1591;SDS011;789;51.612;7.510;2022-08-19T02:20:38;14.20;;;13.10;;
1591;SDS011;789;51.612;7.510;2022-08-19T02:23:07;16.07;;;14.47;;
1591;SDS011;789;51.612;7.510;2022-08-19T02:25:34;13.07;;;11.90;;
1591;SDS011;789;51.612;7.510;2022-08-19T02:28:01;11.80;;;10.70;;
1591;SDS011;789;51.612;7.510;2022-08-19T02:30:27;11.83;;;10.93;;
1591;SDS011;789;51.612;7.510;2022-08-19T02:32:56;13.40;;;12.30;;
1591;SDS011;789;51.612;7.510;2022-08-19T02:35:23;14.70;;;13.30;;
1591;SDS011;789;51.612;7.510;2022-08-19T02:37:50;13.40;;;12.00;;
1591;SDS011;789;51.612;7.510;2022-08-19T02:40:34;14.60;;;13.20;;
1591;SDS011;789;51.612;7.510;2022-08-19T02:43:02;15.67;;;14.27;;
1591;SDS011;789;51.612;7.510;2022-08-19T02:45:31;14.87;;;13.57;;
1591;SDS011;789;51.612;7.510;2022-08-19T02:48:00;13.93;;;12.73;;
1591;SDS011;789;51.612;7.510;2022-08-19T02:50:27;15.17;;;13.77;;
1591;SDS011;789;51.612;7.510;2022-08-19T02:52:54;15.90;;;14.60;;
1591;SDS011;789;51.612;7.510;2022-08-19T02:55:21;14.60;;;13.30;;
1591;SDS011;789;51.612;7.510;2022-08-19T02:57:48;16.97;;;15.10;;
1591;SDS011;789;51.612;7.510;2022-08-19T03:00:15;14.80;;;13.60;;
1591;SDS011;789;51.612;7.510;2022-08-19T03:02:42;15.03;;;13.83;;
1591;SDS011;789;51.612;7.510;2022-08-19T03:05:11;16.67;;;15.27;;
1591;SDS011;789;51.612;7.510;2022-08-19T03:07:41;16.87;;;15.17;;
1591;SDS011;789;51.612;7.510;2022-08-19T03:10:08;16.07;;;14.63;;
1591;SDS011;789;51.612;7.510;2022-08-19T03:12:35;19.20;;;16.00;;
1591;SDS011;789;51.612;7.510;2022-08-19T03:15:03;18.80;;;17.17;;
1591;SDS011;789;51.612;7.510;2022-08-19T03:17:32;19.37;;;17.27;;
1591;SDS011;789;51.612;7.510;2022-08-19T03:19:59;18.00;;;16.40;;
1591;SDS011;789;51.612;7.510;2022-08-19T03:22:27;18.67;;;16.77;;
1591;SDS011;789;51.612;7.510;2022-08-19T03:24:55;17.83;;;15.93;;
1591;SDS011;789;51.612;7.510;2022-08-19T03:27:22;19.30;;;17.60;;
1591;SDS011;789;51.612;7.510;2022-08-19T03:29:48;19.30;;;17.70;;
1591;SDS011;789;51.612;7.510;2022-08-19T03:32:15;21.07;;;19.33;;
1591;SDS011;789;51.612;7.510;2022-08-19T03:34:42;22.53;;;20.30;;
1591;SDS011;789;51.612;7.510;2022-08-19T03:37:10;21.70;;;19.63;;
1591;SDS011;789;51.612;7.510;2022-08-19T03:39:40;22.77;;;20.73;;
1591;SDS011;789;51.612;7.510;2022-08-19T03:42:07;21.63;;;19.60;;
1591;SDS011;789;51.612;7.510;2022-08-19T03:44:37;21.23;;;19.20;;
1591;SDS011;789;51.612;7.510;2022-08-19T03:47:04;20.30;;;18.57;;
1591;SDS011;789;51.612;7.510;2022-08-19T03:49:31;22.03;;;20.13;;
1591;SDS011;789;51.612;7.510;2022-08-19T03:52:00;21.47;;;19.57;;
1591;SDS011;789;51.612;7.510;2022-08-19T03:54:27;21.37;;;19.13;;
1591;SDS011;789;51.612;7.510;2022-08-19T03:56:56;19.93;;;18.23;;
1591;SDS011;789;51.612;7.510;2022-08-19T03:59:26;20.27;;;18.40;;
1591;SDS011;789;51.612;7.510;2022-08-19T04:01:54;23.00;;;19.63;;
1591;SDS011;789;51.612;7.510;2022-08-19T04:04:22;19.00;;;17.30;;
1591;SDS011;789;51.612;7.510;2022-08-19T04:06:49;19.27;;;17.57;;
1591;SDS011;789;51.612;7.510;2022-08-19T04:09:16;21.13;;;19.33;;
1591;SDS011;789;51.612;7.510;2022-08-19T04:11:46;20.83;;;19.10;;
1591;SDS011;789;51.612;7.510;2022-08-19T04:14:17;20.77;;;18.77;;
1591;SDS011;789;51.612;7.510;2022-08-19T04:16:46;19.37;;;17.73;;
1591;SDS011;789;51.612;7.510;2022-08-19T04:19:14;20.03;;;17.33;;
1591;SDS011;789;51.612;7.510;2022-08-19T04:21:43;23.13;;;18.90;;
1591;SDS011;789;51.612;7.510;2022-08-19T04:24:30;25.67;;;19.10;;
1591;SDS011;789;51.612;7.510;2022-08-19T04:26:58;19.87;;;18.07;;
1591;SDS011;789;51.612;7.510;2022-08-19T04:29:27;20.23;;;18.37;;
1591;SDS011;789;51.612;7.510;2022-08-19T04:31:55;20.77;;;18.83;;
1591;SDS011;789;51.612;7.510;2022-08-19T04:34:24;19.80;;;17.80;;
1591;SDS011;789;51.612;7.510;2022-08-19T04:36:53;21.90;;;19.60;;
1591;SDS011;789;51.612;7.510;2022-08-19T04:39:23;22.13;;;19.90;;
1591;SDS011;789;51.612;7.510;2022-08-19T04:42:12;22.50;;;20.30;;
1591;SDS011;789;51.612;7.510;2022-08-19T04:45:04;22.43;;;20.30;;
1591;SDS011;789;51.612;7.510;2022-08-19T04:47:32;23.00;;;20.90;;
1591;SDS011;789;51.612;7.510;2022-08-19T04:49:59;24.40;;;22.00;;
1591;SDS011;789;51.612;7.510;2022-08-19T04:52:29;25.27;;;22.27;;
1591;SDS011;789;51.612;7.510;2022-08-19T04:54:57;26.73;;;23.87;;
1591;SDS011;789;51.612;7.510;2022-08-19T04:57:23;25.53;;;23.03;;
1591;SDS011;789;51.612;7.510;2022-08-19T04:59:53;26.47;;;23.93;;
1591;SDS011;789;51.612;7.510;2022-08-19T05:02:22;26.30;;;23.77;;
1591;SDS011;789;51.612;7.510;2022-08-19T05:04:50;29.03;;;25.90;;
1591;SDS011;789;51.612;7.510;2022-08-19T05:07:17;34.20;;;25.90;;
1591;SDS011;789;51.612;7.510;2022-08-19T05:09:43;29.10;;;25.80;;
1591;SDS011;789;51.612;7.510;2022-08-19T05:12:10;27.13;;;24.20;;
1591;SDS011;789;51.612;7.510;2022-08-19T05:14:37;31.13;;;25.43;;
1591;SDS011;789;51.612;7.510;2022-08-19T05:17:04;27.40;;;24.53;;
1591;SDS011;789;51.612;7.510;2022-08-19T05:19:32;32.50;;;27.10;;
1591;SDS011;789;51.612;7.510;2022-08-19T05:22:16;25.47;;;22.77;;
1591;SDS011;789;51.612;7.510;2022-08-19T05:25:00;24.27;;;21.70;;
1591;SDS011;789;51.612;7.510;2022-08-19T05:27:30;24.63;;;22.13;;
1591;SDS011;789;51.612;7.510;2022-08-19T05:29:57;24.23;;;22.00;;
1591;SDS011;789;51.612;7.510;2022-08-19T05:32:25;26.40;;;22.30;;
1591;SDS011;789;51.612;7.510;2022-08-19T05:34:53;24.30;;;21.87;;
1591;SDS011;789;51.612;7.510;2022-08-19T05:37:20;23.03;;;20.53;;
1591;SDS011;789;51.612;7.510;2022-08-19T05:39:47;24.87;;;20.67;;
1591;SDS011;789;51.612;7.510;2022-08-19T05:42:14;26.50;;;21.90;;
1591;SDS011;789;51.612;7.510;2022-08-19T05:44:42;23.57;;;21.27;;
1591;SDS011;789;51.612;7.510;2022-08-19T05:47:10;36.90;;;20.60;;
1591;SDS011;789;51.612;7.510;2022-08-19T05:49:38;27.33;;;24.67;;
1591;SDS011;789;51.612;7.510;2022-08-19T05:52:07;24.13;;;21.83;;
1591;SDS011;789;51.612;7.510;2022-08-19T05:54:38;25.57;;;23.07;;
1591;SDS011;789;51.612;7.510;2022-08-19T05:57:06;26.73;;;23.50;;
1591;SDS011;789;51.612;7.510;2022-08-19T05:59:34;27.00;;;22.93;;
1591;SDS011;789;51.612;7.510;2022-08-19T06:02:02;24.70;;;22.10;;
1591;SDS011;789;51.612;7.510;2022-08-19T06:04:29;26.10;;;23.43;;
1591;SDS011;789;51.612;7.510;2022-08-19T06:06:56;24.07;;;21.57;;
1591;SDS011;789;51.612;7.510;2022-08-19T06:09:25;30.73;;;24.17;;
1591;SDS011;789;51.612;7.510;2022-08-19T06:11:52;25.20;;;22.53;;
1591;SDS011;789;51.612;7.510;2022-08-19T06:14:39;27.53;;;22.90;;
1591;SDS011;789;51.612;7.510;2022-08-19T06:17:06;26.20;;;22.93;;
1591;SDS011;789;51.612;7.510;2022-08-19T06:19:33;25.27;;;22.60;;
1591;SDS011;789;51.612;7.510;2022-08-19T06:22:00;28.73;;;25.23;;
1591;SDS011;789;51.612;7.510;2022-08-19T06:24:29;28.77;;;25.20;;
1591;SDS011;789;51.612;7.510;2022-08-19T06:26:57;30.53;;;25.57;;
1591;SDS011;789;51.612;7.510;2022-08-19T06:29:25;27.33;;;24.40;;
1591;SDS011;789;51.612;7.510;2022-08-19T06:31:55;31.70;;;26.07;;
1591;SDS011;789;51.612;7.510;2022-08-19T06:34:24;37.10;;;28.13;;
1591;SDS011;789;51.612;7.510;2022-08-19T06:36:52;28.23;;;25.40;;
1591;SDS011;789;51.612;7.510;2022-08-19T06:39:20;30.70;;;24.93;;
1591;SDS011;789;51.612;7.510;2022-08-19T06:41:50;27.97;;;25.30;;
1591;SDS011;789;51.612;7.510;2022-08-19T06:44:19;27.10;;;24.50;;
1591;SDS011;789;51.612;7.510;2022-08-19T06:46:47;29.87;;;26.87;;
1591;SDS011;789;51.612;7.510;2022-08-19T06:49:14;28.77;;;25.70;;
1591;SDS011;789;51.612;7.510;2022-08-19T06:51:42;28.80;;;25.90;;
1591;SDS011;789;51.612;7.510;2022-08-19T06:54:12;31.60;;;26.37;;
1591;SDS011;789;51.612;7.510;2022-08-19T06:56:40;33.57;;;28.37;;
1591;SDS011;789;51.612;7.510;2022-08-19T06:59:10;31.57;;;28.30;;
1591;SDS011;789;51.612;7.510;2022-08-19T07:01:39;31.10;;;28.00;;
1591;SDS011;789;51.612;7.510;2022-08-19T07:04:11;31.80;;;27.63;;
1591;SDS011;789;51.612;7.510;2022-08-19T07:06:40;34.00;;;30.60;;
1591;SDS011;789;51.612;7.510;2022-08-19T07:09:09;34.93;;;31.27;;
1591;SDS011;789;51.612;7.510;2022-08-19T07:11:37;33.30;;;29.90;;
1591;SDS011;789;51.612;7.510;2022-08-19T07:14:04;33.80;;;30.00;;
1591;SDS011;789;51.612;7.510;2022-08-19T07:16:33;35.93;;;30.10;;
1591;SDS011;789;51.612;7.510;2022-08-19T07:19:00;37.67;;;30.77;;
1591;SDS011;789;51.612;7.510;2022-08-19T07:21:28;37.23;;;29.23;;
1591;SDS011;789;51.612;7.510;2022-08-19T07:23:55;32.30;;;29.20;;
1591;SDS011;789;51.612;7.510;2022-08-19T07:26:23;32.83;;;28.50;;
1591;SDS011;789;51.612;7.510;2022-08-19T07:28:51;32.60;;;29.07;;
1591;SDS011;789;51.612;7.510;2022-08-19T07:31:19;32.63;;;27.97;;
1591;SDS011;789;51.612;7.510;2022-08-19T07:33:49;31.93;;;28.80;;
1591;SDS011;789;51.612;7.510;2022-08-19T07:36:21;31.07;;;27.77;;
1591;SDS011;789;51.612;7.510;2022-08-19T07:38:50;29.70;;;26.70;;
1591;SDS011;789;51.612;7.510;2022-08-19T07:41:19;30.87;;;27.93;;
1591;SDS011;789;51.612;7.510;2022-08-19T07:43:50;29.90;;;26.80;;
1591;SDS011;789;51.612;7.510;2022-08-19T07:46:18;31.10;;;27.70;;
1591;SDS011;789;51.612;7.510;2022-08-19T07:48:45;34.87;;;27.80;;
1591;SDS011;789;51.612;7.510;2022-08-19T07:51:17;30.30;;;27.30;;
1591;SDS011;789;51.612;7.510;2022-08-19T07:53:46;29.20;;;26.10;;
1591;SDS011;789;51.612;7.510;2022-08-19T07:56:15;29.73;;;26.73;;
1591;SDS011;789;51.612;7.510;2022-08-19T07:58:44;29.93;;;24.07;;
1591;SDS011;789;51.612;7.510;2022-08-19T08:01:13;27.53;;;24.33;;
1591;SDS011;789;51.612;7.510;2022-08-19T08:03:43;28.73;;;25.73;;
1591;SDS011;789;51.612;7.510;2022-08-19T08:06:29;27.90;;;25.00;;
1591;SDS011;789;51.612;7.510;2022-08-19T08:09:14;24.93;;;22.37;;
1591;SDS011;789;51.612;7.510;2022-08-19T08:11:48;27.30;;;24.50;;
1591;SDS011;789;51.612;7.510;2022-08-19T08:14:16;31.33;;;23.10;;
1591;SDS011;789;51.612;7.510;2022-08-19T08:17:04;26.60;;;22.93;;
1591;SDS011;789;51.612;7.510;2022-08-19T08:19:32;27.03;;;22.60;;
1591;SDS011;789;51.612;7.510;2022-08-19T08:22:01;25.70;;;22.90;;
1591;SDS011;789;51.612;7.510;2022-08-19T08:24:30;23.33;;;21.10;;
1591;SDS011;789;51.612;7.510;2022-08-19T08:26:58;24.53;;;21.97;;
1591;SDS011;789;51.612;7.510;2022-08-19T08:29:26;24.63;;;22.07;;
1591;SDS011;789;51.612;7.510;2022-08-19T08:31:54;23.23;;;20.90;;
1591;SDS011;789;51.612;7.510;2022-08-19T08:34:21;21.70;;;19.60;;
1591;SDS011;789;51.612;7.510;2022-08-19T08:36:48;20.40;;;18.40;;
1591;SDS011;789;51.612;7.510;2022-08-19T08:39:19;18.27;;;16.57;;
1591;SDS011;789;51.612;7.510;2022-08-19T08:41:49;18.57;;;16.73;;
1591;SDS011;789;51.612;7.510;2022-08-19T08:44:40;18.93;;;17.13;;
1591;SDS011;789;51.612;7.510;2022-08-19T08:47:18;17.30;;;15.60;;
1591;SDS011;789;51.612;7.510;2022-08-19T08:49:47;18.10;;;15.23;;
1591;SDS011;789;51.612;7.510;2022-08-19T08:52:18;16.73;;;15.13;;
1591;SDS011;789;51.612;7.510;2022-08-19T08:54:50;16.60;;;13.60;;
1591;SDS011;789;51.612;7.510;2022-08-19T08:57:19;17.93;;;13.33;;
1591;SDS011;789;51.612;7.510;2022-08-19T08:59:51;14.60;;;13.20;;
1591;SDS011;789;51.612;7.510;2022-08-19T09:02:20;12.90;;;11.77;;
1591;SDS011;789;51.612;7.510;2022-08-19T09:04:47;13.67;;;12.37;;
1591;SDS011;789;51.612;7.510;2022-08-19T09:10:10;14.50;;;13.20;;
1591;SDS011;789;51.612;7.510;2022-08-19T09:12:45;12.83;;;11.73;;
1591;SDS011;789;51.612;7.510;2022-08-19T09:15:22;14.87;;;13.53;;
1591;SDS011;789;51.612;7.510;2022-08-19T09:17:53;11.33;;;10.43;;
1591;SDS011;789;51.612;7.510;2022-08-19T09:20:23;12.60;;;11.30;;
1591;SDS011;789;51.612;7.510;2022-08-19T09:22:50;14.53;;;11.17;;
1591;SDS011;789;51.612;7.510;2022-08-19T09:25:19;11.60;;;10.50;;
1591;SDS011;789;51.612;7.510;2022-08-19T09:27:47;11.40;;;10.50;;
1591;SDS011;789;51.612;7.510;2022-08-19T09:30:18;15.07;;;13.70;;
1591;SDS011;789;51.612;7.510;2022-08-19T09:32:47;14.17;;;12.87;;
1591;SDS011;789;51.612;7.510;2022-08-19T09:35:15;14.20;;;12.97;;
1591;SDS011;789;51.612;7.510;2022-08-19T09:37:42;12.17;;;11.13;;
1591;SDS011;789;51.612;7.510;2022-08-19T09:40:09;54.80;;;50.43;;
1591;SDS011;789;51.612;7.510;2022-08-19T09:42:39;24.27;;;22.27;;
1591;SDS011;789;51.612;7.510;2022-08-19T09:45:08;39.87;;;36.37;;
1591;SDS011;789;51.612;7.510;2022-08-19T09:47:36;17.23;;;15.70;;
1591;SDS011;789;51.612;7.510;2022-08-19T09:50:03;36.57;;;33.37;;
1591;SDS011;789;51.612;7.510;2022-08-19T09:52:32;14.23;;;13.03;;
1591;SDS011;789;51.612;7.510;2022-08-19T09:55:01;16.83;;;15.23;;
1591;SDS011;789;51.612;7.510;2022-08-19T09:57:28;12.30;;;11.13;;
1591;SDS011;789;51.612;7.510;2022-08-19T09:59:56;15.50;;;14.10;;
1591;SDS011;789;51.612;7.510;2022-08-19T10:02:23;13.40;;;12.30;;
1591;SDS011;789;51.612;7.510;2022-08-19T10:04:50;11.30;;;10.07;;
1591;SDS011;789;51.612;7.510;2022-08-19T10:07:35;9.70;;;8.90;;
1591;SDS011;789;51.612;7.510;2022-08-19T10:10:02;10.93;;;9.90;;
1591;SDS011;789;51.612;7.510;2022-08-19T10:12:30;13.50;;;12.10;;
1591;SDS011;789;51.612;7.510;2022-08-19T10:14:59;12.20;;;11.20;;
1591;SDS011;789;51.612;7.510;2022-08-19T10:17:26;12.53;;;11.43;;
1591;SDS011;789;51.612;7.510;2022-08-19T10:19:53;13.10;;;11.80;;
1591;SDS011;789;51.612;7.510;2022-08-19T10:22:20;17.63;;;15.03;;
1591;SDS011;789;51.612;7.510;2022-08-19T10:24:47;16.37;;;13.87;;
1591;SDS011;789;51.612;7.510;2022-08-19T10:27:15;12.00;;;11.10;;
1591;SDS011;789;51.612;7.510;2022-08-19T10:29:41;15.40;;;13.80;;
1591;SDS011;789;51.612;7.510;2022-08-19T10:32:10;17.03;;;15.40;;
1591;SDS011;789;51.612;7.510;2022-08-19T10:34:37;17.13;;;15.73;;
1591;SDS011;789;51.612;7.510;2022-08-19T10:37:05;14.37;;;13.07;;
1591;SDS011;789;51.612;7.510;2022-08-19T10:39:32;14.20;;;13.00;;
1591;SDS011;789;51.612;7.510;2022-08-19T10:42:03;16.53;;;14.90;;
1591;SDS011;789;51.612;7.510;2022-08-19T10:44:31;13.60;;;11.87;;
1591;SDS011;789;51.612;7.510;2022-08-19T10:47:00;11.53;;;9.73;;
1591;SDS011;789;51.612;7.510;2022-08-19T10:49:28;11.60;;;10.60;;
1591;SDS011;789;51.612;7.510;2022-08-19T10:51:57;11.80;;;10.77;;
1591;SDS011;789;51.612;7.510;2022-08-19T10:54:41;13.00;;;12.10;;
1591;SDS011;789;51.612;7.510;2022-08-19T10:57:29;12.20;;;11.20;;
1591;SDS011;789;51.612;7.510;2022-08-19T10:59:56;13.40;;;12.40;;
1591;SDS011;789;51.612;7.510;2022-08-19T11:02:23;17.10;;;15.67;;
1591;SDS011;789;51.612;7.510;2022-08-19T11:04:52;15.50;;;14.30;;
1591;SDS011;789;51.612;7.510;2022-08-19T11:07:18;14.20;;;13.00;;
1591;SDS011;789;51.612;7.510;2022-08-19T11:09:46;20.20;;;18.60;;
1591;SDS011;789;51.612;7.510;2022-08-19T11:12:13;16.03;;;14.87;;
1591;SDS011;789;51.612;7.510;2022-08-19T11:14:40;13.30;;;12.30;;
1591;SDS011;789;51.612;7.510;2022-08-19T11:17:07;15.50;;;14.00;;
1591;SDS011;789;51.612;7.510;2022-08-19T11:19:34;15.37;;;13.87;;
1591;SDS011;789;51.612;7.510;2022-08-19T11:22:02;11.43;;;10.43;;
1591;SDS011;789;51.612;7.510;2022-08-19T11:24:30;14.80;;;13.47;;
1591;SDS011;789;51.612;7.510;2022-08-19T11:27:00;12.70;;;11.60;;
1591;SDS011;789;51.612;7.510;2022-08-19T11:29:29;14.07;;;12.73;;
1591;SDS011;789;51.612;7.510;2022-08-19T11:31:57;12.40;;;11.43;;
1591;SDS011;789;51.612;7.510;2022-08-19T11:34:26;12.07;;;10.93;;
1591;SDS011;789;51.612;7.510;2022-08-19T11:36:54;10.67;;;9.63;;
1591;SDS011;789;51.612;7.510;2022-08-19T11:39:25;9.57;;;8.67;;
1591;SDS011;789;51.612;7.510;2022-08-19T11:41:54;10.30;;;8.83;;
1591;SDS011;789;51.612;7.510;2022-08-19T11:44:21;10.60;;;9.63;;
1591;SDS011;789;51.612;7.510;2022-08-19T11:46:47;10.43;;;9.50;;
1591;SDS011;789;51.612;7.510;2022-08-19T11:49:15;9.53;;;8.80;;
1591;SDS011;789;51.612;7.510;2022-08-19T11:51:45;12.30;;;11.20;;
1591;SDS011;789;51.612;7.510;2022-08-19T11:54:12;9.67;;;8.87;;
1591;SDS011;789;51.612;7.510;2022-08-19T11:56:42;10.33;;;9.53;;
1591;SDS011;789;51.612;7.510;2022-08-19T11:59:10;9.97;;;9.10;;
1591;SDS011;789;51.612;7.510;2022-08-19T12:01:37;9.20;;;8.30;;
1591;SDS011;789;51.612;7.510;2022-08-19T12:04:05;10.67;;;8.90;;
1591;SDS011;789;51.612;7.510;2022-08-19T12:06:32;10.80;;;9.33;;
1591;SDS011;789;51.612;7.510;2022-08-19T12:09:01;10.67;;;8.97;;
1591;SDS011;789;51.612;7.510;2022-08-19T12:11:31;10.93;;;9.03;;
1591;SDS011;789;51.612;7.510;2022-08-19T12:13:59;8.57;;;7.70;;
1591;SDS011;789;51.612;7.510;2022-08-19T12:16:27;9.37;;;6.80;;
1591;SDS011;789;51.612;7.510;2022-08-19T12:18:55;10.30;;;9.40;;
1591;SDS011;789;51.612;7.510;2022-08-19T12:21:24;12.63;;;11.23;;
1591;SDS011;789;51.612;7.510;2022-08-19T12:23:54;9.20;;;8.40;;
1591;SDS011;789;51.612;7.510;2022-08-19T12:26:21;8.00;;;7.30;;
1591;SDS011;789;51.612;7.510;2022-08-19T12:28:49;10.83;;;9.93;;
1591;SDS011;789;51.612;7.510;2022-08-19T12:31:17;12.40;;;11.30;;
1591;SDS011;789;51.612;7.510;2022-08-19T12:33:45;14.07;;;12.77;;
1591;SDS011;789;51.612;7.510;2022-08-19T12:36:13;12.97;;;10.47;;
1591;SDS011;789;51.612;7.510;2022-08-19T12:38:42;9.60;;;8.70;;
1591;SDS011;789;51.612;7.510;2022-08-19T12:41:10;10.40;;;9.50;;
1591;SDS011;789;51.612;7.510;2022-08-19T12:43:39;11.33;;;10.43;;
1591;SDS011;789;51.612;7.510;2022-08-19T12:46:06;9.37;;;8.53;;
1591;SDS011;789;51.612;7.510;2022-08-19T12:48:34;12.37;;;11.17;;
1591;SDS011;789;51.612;7.510;2022-08-19T12:51:05;11.33;;;10.27;;
1591;SDS011;789;51.612;7.510;2022-08-19T12:53:33;13.43;;;12.43;;
1591;SDS011;789;51.612;7.510;2022-08-19T12:56:00;14.47;;;13.03;;
1591;SDS011;789;51.612;7.510;2022-08-19T12:58:28;16.27;;;14.87;;
1591;SDS011;789;51.612;7.510;2022-08-19T13:00:56;16.10;;;14.70;;
1591;SDS011;789;51.612;7.510;2022-08-19T13:03:28;14.47;;;13.33;;
1591;SDS011;789;51.612;7.510;2022-08-19T13:05:56;16.40;;;15.10;;
1591;SDS011;789;51.612;7.510;2022-08-19T13:08:23;15.63;;;14.43;;
1591;SDS011;789;51.612;7.510;2022-08-19T13:10:49;16.87;;;15.40;;
1591;SDS011;789;51.612;7.510;2022-08-19T13:13:16;14.90;;;13.50;;
1591;SDS011;789;51.612;7.510;2022-08-19T13:15:43;16.97;;;15.50;;
1591;SDS011;789;51.612;7.510;2022-08-19T13:18:10;15.97;;;14.53;;
1591;SDS011;789;51.612;7.510;2022-08-19T13:20:38;16.67;;;14.97;;
1591;SDS011;789;51.612;7.510;2022-08-19T13:23:08;13.93;;;12.83;;
1591;SDS011;789;51.612;7.510;2022-08-19T13:25:35;13.60;;;12.40;;
1591;SDS011;789;51.612;7.510;2022-08-19T13:28:02;12.30;;;11.40;;
1591;SDS011;789;51.612;7.510;2022-08-19T13:30:31;12.13;;;11.13;;
1591;SDS011;789;51.612;7.510;2022-08-19T13:33:16;10.70;;;9.53;;
1591;SDS011;789;51.612;7.510;2022-08-19T13:35:44;12.53;;;11.53;;
1591;SDS011;789;51.612;7.510;2022-08-19T13:38:14;11.00;;;10.10;;
1591;SDS011;789;51.612;7.510;2022-08-19T13:40:43;14.50;;;12.70;;
1591;SDS011;789;51.612;7.510;2022-08-19T13:43:11;12.87;;;11.77;;
1591;SDS011;789;51.612;7.510;2022-08-19T13:45:38;15.57;;;14.03;;
1591;SDS011;789;51.612;7.510;2022-08-19T13:48:06;16.00;;;14.73;;
1591;SDS011;789;51.612;7.510;2022-08-19T13:50:34;10.80;;;10.00;;
1591;SDS011;789;51.612;7.510;2022-08-19T13:53:05;13.00;;;11.77;;
1591;SDS011;789;51.612;7.510;2022-08-19T13:55:33;12.30;;;11.30;;
1591;SDS011;789;51.612;7.510;2022-08-19T13:58:01;13.10;;;11.90;;
1591;SDS011;789;51.612;7.510;2022-08-19T14:00:29;12.73;;;11.67;;
1591;SDS011;789;51.612;7.510;2022-08-19T14:02:58;13.30;;;12.20;;
1591;SDS011;789;51.612;7.510;2022-08-19T14:05:25;13.80;;;12.50;;
1591;SDS011;789;51.612;7.510;2022-08-19T14:07:53;14.63;;;13.40;;
1591;SDS011;789;51.612;7.510;2022-08-19T14:10:20;13.77;;;12.67;;
1591;SDS011;789;51.612;7.510;2022-08-19T14:12:51;13.60;;;12.50;;
1591;SDS011;789;51.612;7.510;2022-08-19T14:15:20;12.17;;;11.17;;
1591;SDS011;789;51.612;7.510;2022-08-19T14:17:49;14.37;;;12.50;;
1591;SDS011;789;51.612;7.510;2022-08-19T14:20:17;12.80;;;11.40;;
1591;SDS011;789;51.612;7.510;2022-08-19T14:22:45;12.90;;;11.60;;
1591;SDS011;789;51.612;7.510;2022-08-19T14:25:13;14.93;;;13.53;;
1591;SDS011;789;51.612;7.510;2022-08-19T14:27:41;14.97;;;13.33;;
1591;SDS011;789;51.612;7.510;2022-08-19T14:30:10;10.97;;;10.00;;
1591;SDS011;789;51.612;7.510;2022-08-19T14:32:40;13.90;;;11.53;;
1591;SDS011;789;51.612;7.510;2022-08-19T14:35:08;12.43;;;11.43;;
1591;SDS011;789;51.612;7.510;2022-08-19T14:37:37;14.30;;;12.80;;
1591;SDS011;789;51.612;7.510;2022-08-19T14:40:05;11.60;;;10.60;;
1591;SDS011;789;51.612;7.510;2022-08-19T14:42:33;11.00;;;9.87;;
1591;SDS011;789;51.612;7.510;2022-08-19T14:45:00;11.17;;;10.10;;
1591;SDS011;789;51.612;7.510;2022-08-19T14:47:28;10.07;;;9.20;;
1591;SDS011;789;51.612;7.510;2022-08-19T14:49:55;11.83;;;9.53;;
1591;SDS011;789;51.612;7.510;2022-08-19T14:52:22;10.03;;;9.20;;
1591;SDS011;789;51.612;7.510;2022-08-19T14:54:49;10.80;;;10.00;;
1591;SDS011;789;51.612;7.510;2022-08-19T14:57:16;9.17;;;8.20;;
1591;SDS011;789;51.612;7.510;2022-08-19T14:59:43;11.43;;;9.40;;
1591;SDS011;789;51.612;7.510;2022-08-19T15:02:10;9.00;;;8.27;;
1591;SDS011;789;51.612;7.510;2022-08-19T15:04:39;8.90;;;8.20;;
1591;SDS011;789;51.612;7.510;2022-08-19T15:07:05;10.90;;;10.00;;
1591;SDS011;789;51.612;7.510;2022-08-19T15:09:32;13.20;;;11.57;;
1591;SDS011;789;51.612;7.510;2022-08-19T15:12:00;9.13;;;8.23;;
1591;SDS011;789;51.612;7.510;2022-08-19T15:14:28;8.87;;;8.03;;
1591;SDS011;789;51.612;7.510;2022-08-19T15:27:22;8.10;;;7.40;;